sensor_id;sensor_type;location;lat;lon;timestamp;pressure;altitude;pressure_sealevel;temperature;humidity
28079;BME280;15388;42.238;24.684;2022-12-07T00:02:19;99668.34;;;5.80;100.00
28079;BME280;15388;42.238;24.684;2022-12-07T00:04:45;99674.38;;;5.82;100.00
28079;BME280;15388;42.238;24.684;2022-12-07T00:07:10;99676.19;;;5.82;100.00
28079;BME280;15388;42.238;24.684;2022-12-07T00:09:35;99678.91;;;5.80;100.00
28079;BME280;15388;42.238;24.684;2022-12-07T00:12:01;99669.50;;;5.76;100.00
28079;BME280;15388;42.238;24.684;2022-12-07T00:14:26;99671.59;;;5.71;100.00
28079;BME280;15388;42.238;24.684;2022-12-07T00:16:51;99667.66;;;5.64;100.00
28079;BME280;15388;42.238;24.684;2022-12-07T00:19:17;99665.34;;;5.59;100.00
28079;BME280;15388;42.238;24.684;2022-12-07T00:21:43;99669.97;;;5.55;100.00
28079;BME280;15388;42.238;24.684;2022-12-07T00:24:09;99669.66;;;5.47;100.00
28079;BME280;15388;42.238;24.684;2022-12-07T00:26:35;99673.06;;;5.34;100.00
28079;BME280;15388;42.238;24.684;2022-12-07T00:29:03;99658.53;;;5.42;100.00
28079;BME280;15388;42.238;24.684;2022-12-07T00:31:30;99664.38;;;5.47;100.00
28079;BME280;15388;42.238;24.684;2022-12-07T00:33:57;99669.53;;;5.48;100.00
28079;BME280;15388;42.238;24.684;2022-12-07T00:36:23;99675.44;;;5.52;100.00
28079;BME280;15388;42.238;24.684;2022-12-07T00:38:48;99662.81;;;5.57;100.00
28079;BME280;15388;42.238;24.684;2022-12-07T00:41:18;99675.81;;;5.60;100.00
28079;BME280;15388;42.238;24.684;2022-12-07T00:43:45;99667.91;;;5.60;100.00
28079;BME280;15388;42.238;24.684;2022-12-07T00:46:10;99668.91;;;5.58;100.00
28079;BME280;15388;42.238;24.684;2022-12-07T00:48:36;99674.84;;;5.61;100.00
28079;BME280;15388;42.238;24.684;2022-12-07T00:51:01;99661.09;;;5.56;100.00
28079;BME280;15388;42.238;24.684;2022-12-07T00:53:27;99663.22;;;5.51;100.00
28079;BME280;15388;42.238;24.684;2022-12-07T00:55:52;99665.56;;;5.56;100.00
28079;BME280;15388;42.238;24.684;2022-12-07T00:58:18;99663.88;;;5.55;100.00
28079;BME280;15388;42.238;24.684;2022-12-07T01:00:43;99663.75;;;5.56;100.00
28079;BME280;15388;42.238;24.684;2022-12-07T01:03:10;99666.38;;;5.56;100.00
28079;BME280;15388;42.238;24.684;2022-12-07T01:05:36;99661.34;;;5.53;100.00
28079;BME280;15388;42.238;24.684;2022-12-07T01:08:01;99665.09;;;5.49;100.00
28079;BME280;15388;42.238;24.684;2022-12-07T01:10:27;99659.81;;;5.49;100.00
28079;BME280;15388;42.238;24.684;2022-12-07T01:12:52;99652.03;;;5.47;100.00
28079;BME280;15388;42.238;24.684;2022-12-07T01:15:17;99655.50;;;5.48;100.00
28079;BME280;15388;42.238;24.684;2022-12-07T01:17:43;99657.06;;;5.51;100.00
28079;BME280;15388;42.238;24.684;2022-12-07T01:20:08;99649.06;;;5.52;100.00
28079;BME280;15388;42.238;24.684;2022-12-07T01:22:37;99644.72;;;5.51;100.00
28079;BME280;15388;42.238;24.684;2022-12-07T01:25:03;99640.22;;;5.53;100.00
28079;BME280;15388;42.238;24.684;2022-12-07T01:27:29;99639.16;;;5.56;100.00
28079;BME280;15388;42.238;24.684;2022-12-07T01:29:54;99635.31;;;5.47;100.00
28079;BME280;15388;42.238;24.684;2022-12-07T01:32:19;99632.97;;;5.42;100.00
28079;BME280;15388;42.238;24.684;2022-12-07T01:34:47;99637.06;;;5.33;100.00
28079;BME280;15388;42.238;24.684;2022-12-07T01:37:12;99632.75;;;5.32;100.00
28079;BME280;15388;42.238;24.684;2022-12-07T01:39:37;99630.97;;;5.33;100.00
28079;BME280;15388;42.238;24.684;2022-12-07T01:42:03;99632.56;;;5.35;100.00
28079;BME280;15388;42.238;24.684;2022-12-07T01:44:31;99636.88;;;5.37;100.00
28079;BME280;15388;42.238;24.684;2022-12-07T01:47:01;99628.97;;;5.37;100.00
28079;BME280;15388;42.238;24.684;2022-12-07T01:49:31;99632.75;;;5.32;100.00
28079;BME280;15388;42.238;24.684;2022-12-07T01:52:03;99622.00;;;5.35;100.00
28079;BME280;15388;42.238;24.684;2022-12-07T01:54:32;99622.00;;;5.35;100.00
28079;BME280;15388;42.238;24.684;2022-12-07T01:56:58;99619.16;;;5.39;100.00
28079;BME280;15388;42.238;24.684;2022-12-07T01:59:24;99623.00;;;5.47;100.00
28079;BME280;15388;42.238;24.684;2022-12-07T02:01:51;99621.94;;;5.50;100.00
28079;BME280;15388;42.238;24.684;2022-12-07T02:04:16;99617.72;;;5.47;100.00
28079;BME280;15388;42.238;24.684;2022-12-07T02:06:42;99617.38;;;5.52;100.00
28079;BME280;15388;42.238;24.684;2022-12-07T02:09:09;99615.69;;;5.51;100.00
28079;BME280;15388;42.238;24.684;2022-12-07T02:11:35;99614.53;;;5.55;100.00
28079;BME280;15388;42.238;24.684;2022-12-07T02:14:00;99613.38;;;5.59;100.00
28079;BME280;15388;42.238;24.684;2022-12-07T02:16:35;99610.44;;;5.64;100.00
28079;BME280;15388;42.238;24.684;2022-12-07T02:24:47;99602.00;;;5.72;100.00
28079;BME280;15388;42.238;24.684;2022-12-07T02:27:31;99601.03;;;5.73;100.00
28079;BME280;15388;42.238;24.684;2022-12-07T02:30:00;99593.88;;;5.75;100.00
28079;BME280;15388;42.238;24.684;2022-12-07T02:37:50;99588.03;;;5.70;100.00
28079;BME280;15388;42.238;24.684;2022-12-07T02:40:21;99578.13;;;5.73;100.00
28079;BME280;15388;42.238;24.684;2022-12-07T02:42:53;99583.53;;;5.72;100.00
28079;BME280;15388;42.238;24.684;2022-12-07T02:45:21;99592.91;;;5.76;100.00
28079;BME280;15388;42.238;24.684;2022-12-07T02:47:48;99586.78;;;5.76;100.00
28079;BME280;15388;42.238;24.684;2022-12-07T02:50:17;99584.59;;;5.69;100.00
28079;BME280;15388;42.238;24.684;2022-12-07T02:52:42;99588.25;;;5.67;100.00
28079;BME280;15388;42.238;24.684;2022-12-07T02:55:08;99580.75;;;5.60;100.00
28079;BME280;15388;42.238;24.684;2022-12-07T02:57:49;99573.84;;;5.45;100.00
28079;BME280;15388;42.238;24.684;2022-12-07T03:00:19;99578.53;;;5.54;100.00
28079;BME280;15388;42.238;24.684;2022-12-07T03:03:00;99583.97;;;5.25;100.00
28079;BME280;15388;42.238;24.684;2022-12-07T03:13:40;99573.91;;;4.90;100.00
28079;BME280;15388;42.238;24.684;2022-12-07T03:16:13;99570.88;;;4.96;100.00
28079;BME280;15388;42.238;24.684;2022-12-07T03:18:41;99572.72;;;5.08;100.00
28079;BME280;15388;42.238;24.684;2022-12-07T03:21:11;99576.72;;;5.14;100.00
28079;BME280;15388;42.238;24.684;2022-12-07T03:23:40;99581.09;;;5.15;100.00
28079;BME280;15388;42.238;24.684;2022-12-07T03:26:06;99578.69;;;5.25;100.00
28079;BME280;15388;42.238;24.684;2022-12-07T03:28:35;99583.00;;;5.26;100.00
28079;BME280;15388;42.238;24.684;2022-12-07T03:33:40;99576.69;;;5.42;100.00
28079;BME280;15388;42.238;24.684;2022-12-07T03:36:10;99571.97;;;5.47;100.00
28079;BME280;15388;42.238;24.684;2022-12-07T03:43:33;99570.59;;;5.54;100.00
28079;BME280;15388;42.238;24.684;2022-12-07T03:51:35;99572.50;;;5.65;100.00
28079;BME280;15388;42.238;24.684;2022-12-07T03:54:09;99566.50;;;5.63;100.00
28079;BME280;15388;42.238;24.684;2022-12-07T03:56:35;99574.13;;;5.68;100.00
28079;BME280;15388;42.238;24.684;2022-12-07T03:59:01;99567.78;;;5.70;100.00
28079;BME280;15388;42.238;24.684;2022-12-07T04:01:27;99571.59;;;5.66;100.00
28079;BME280;15388;42.238;24.684;2022-12-07T04:03:52;99570.94;;;5.63;100.00
28079;BME280;15388;42.238;24.684;2022-12-07T04:06:17;99559.31;;;5.65;100.00
28079;BME280;15388;42.238;24.684;2022-12-07T04:08:43;99557.09;;;5.59;100.00
28079;BME280;15388;42.238;24.684;2022-12-07T04:11:08;99560.38;;;5.63;100.00
28079;BME280;15388;42.238;24.684;2022-12-07T04:13:33;99557.53;;;5.66;100.00
28079;BME280;15388;42.238;24.684;2022-12-07T04:16:18;99561.94;;;5.65;100.00
28079;BME280;15388;42.238;24.684;2022-12-07T04:18:44;99560.81;;;5.69;100.00
28079;BME280;15388;42.238;24.684;2022-12-07T04:21:09;99557.41;;;5.67;100.00
28079;BME280;15388;42.238;24.684;2022-12-07T04:23:35;99560.81;;;5.69;100.00
28079;BME280;15388;42.238;24.684;2022-12-07T04:26:00;99549.41;;;5.69;100.00
28079;BME280;15388;42.238;24.684;2022-12-07T04:28:25;99555.75;;;5.66;100.00
28079;BME280;15388;42.238;24.684;2022-12-07T04:30:51;99560.25;;;5.51;100.00
28079;BME280;15388;42.238;24.684;2022-12-07T04:33:16;99562.34;;;5.05;100.00
28079;BME280;15388;42.238;24.684;2022-12-07T04:35:42;99561.56;;;5.18;100.00
28079;BME280;15388;42.238;24.684;2022-12-07T04:38:07;99554.63;;;5.30;100.00
28079;BME280;15388;42.238;24.684;2022-12-07T04:40:32;99556.00;;;5.35;100.00
28079;BME280;15388;42.238;24.684;2022-12-07T04:42:58;99560.34;;;5.37;100.00
28079;BME280;15388;42.238;24.684;2022-12-07T04:45:23;99556.53;;;5.41;100.00
28079;BME280;15388;42.238;24.684;2022-12-07T04:47:48;99557.50;;;5.40;100.00
28079;BME280;15388;42.238;24.684;2022-12-07T04:50:14;99561.63;;;5.44;100.00
28079;BME280;15388;42.238;24.684;2022-12-07T04:52:39;99557.00;;;5.47;100.00
28079;BME280;15388;42.238;24.684;2022-12-07T04:55:04;99564.56;;;5.52;100.00
28079;BME280;15388;42.238;24.684;2022-12-07T04:57:30;99569.84;;;5.52;100.00
28079;BME280;15388;42.238;24.684;2022-12-07T04:59:55;99574.22;;;5.53;100.00
28079;BME280;15388;42.238;24.684;2022-12-07T05:02:20;99561.94;;;5.52;100.00
28079;BME280;15388;42.238;24.684;2022-12-07T05:04:45;99568.19;;;5.51;100.00
28079;BME280;15388;42.238;24.684;2022-12-07T05:07:11;99562.03;;;5.51;100.00
28079;BME280;15388;42.238;24.684;2022-12-07T05:09:36;99569.13;;;5.50;100.00
28079;BME280;15388;42.238;24.684;2022-12-07T05:12:01;99559.28;;;5.52;100.00
28079;BME280;15388;42.238;24.684;2022-12-07T05:14:27;99556.66;;;5.52;100.00
28079;BME280;15388;42.238;24.684;2022-12-07T05:16:52;99553.50;;;5.47;100.00
28079;BME280;15388;42.238;24.684;2022-12-07T05:19:18;99562.28;;;5.47;100.00
28079;BME280;15388;42.238;24.684;2022-12-07T05:21:44;99569.44;;;5.45;100.00
28079;BME280;15388;42.238;24.684;2022-12-07T05:24:10;99569.00;;;5.39;100.00
28079;BME280;15388;42.238;24.684;2022-12-07T05:26:37;99570.13;;;5.34;100.00
28079;BME280;15388;42.238;24.684;2022-12-07T05:29:02;99558.00;;;5.32;100.00
28079;BME280;15388;42.238;24.684;2022-12-07T05:31:28;99564.53;;;5.26;100.00
28079;BME280;15388;42.238;24.684;2022-12-07T05:33:53;99561.78;;;5.28;100.00
28079;BME280;15388;42.238;24.684;2022-12-07T05:36:18;99574.88;;;5.29;100.00
28079;BME280;15388;42.238;24.684;2022-12-07T05:38:44;99580.38;;;5.26;100.00
28079;BME280;15388;42.238;24.684;2022-12-07T05:41:10;99583.97;;;5.25;100.00
28079;BME280;15388;42.238;24.684;2022-12-07T05:43:57;99588.38;;;5.25;100.00
28079;BME280;15388;42.238;24.684;2022-12-07T05:46:22;99580.38;;;5.26;100.00
28079;BME280;15388;42.238;24.684;2022-12-07T05:48:48;99575.09;;;5.26;100.00
28079;BME280;15388;42.238;24.684;2022-12-07T05:51:13;99576.78;;;5.27;100.00
28079;BME280;15388;42.238;24.684;2022-12-07T05:53:38;99589.03;;;5.28;100.00
28079;BME280;15388;42.238;24.684;2022-12-07T05:56:04;99582.03;;;5.27;100.00
28079;BME280;15388;42.238;24.684;2022-12-07T05:58:29;99585.66;;;5.26;100.00
28079;BME280;15388;42.238;24.684;2022-12-07T06:01:13;99587.13;;;5.30;100.00
28079;BME280;15388;42.238;24.684;2022-12-07T06:03:38;99589.75;;;5.30;100.00
28079;BME280;15388;42.238;24.684;2022-12-07T06:06:04;99585.25;;;5.32;100.00
28079;BME280;15388;42.238;24.684;2022-12-07T06:08:29;99587.13;;;5.30;100.00
28079;BME280;15388;42.238;24.684;2022-12-07T06:10:54;99578.69;;;5.25;100.00
28079;BME280;15388;42.238;24.684;2022-12-07T06:13:40;99581.53;;;5.22;100.00
28079;BME280;15388;42.238;24.684;2022-12-07T06:16:05;99588.56;;;5.21;100.00
28079;BME280;15388;42.238;24.684;2022-12-07T06:18:31;99578.44;;;5.15;100.00
28079;BME280;15388;42.238;24.684;2022-12-07T06:20:56;99581.19;;;5.14;100.00
28079;BME280;15388;42.238;24.684;2022-12-07T06:23:21;99580.63;;;5.08;100.00
28079;BME280;15388;42.238;24.684;2022-12-07T06:25:46;99583.25;;;5.08;100.00
28079;BME280;15388;42.238;24.684;2022-12-07T06:28:12;99583.25;;;5.08;100.00
28079;BME280;15388;42.238;24.684;2022-12-07T06:30:37;99590.03;;;5.13;100.00
28079;BME280;15388;42.238;24.684;2022-12-07T06:33:02;99599.28;;;5.05;100.00
28079;BME280;15388;42.238;24.684;2022-12-07T06:35:28;99603.25;;;4.98;100.00
28079;BME280;15388;42.238;24.684;2022-12-07T06:37:53;99600.28;;;4.90;100.00
28079;BME280;15388;42.238;24.684;2022-12-07T06:40:18;99602.38;;;4.84;100.00
28079;BME280;15388;42.238;24.684;2022-12-07T06:42:43;99594.84;;;4.78;100.00
28079;BME280;15388;42.238;24.684;2022-12-07T06:45:09;99589.41;;;4.81;100.00
28079;BME280;15388;42.238;24.684;2022-12-07T06:47:34;99596.91;;;4.88;100.00
28079;BME280;15388;42.238;24.684;2022-12-07T06:50:00;99591.22;;;4.94;100.00
28079;BME280;15388;42.238;24.684;2022-12-07T06:52:25;99597.06;;;4.99;100.00
28079;BME280;15388;42.238;24.684;2022-12-07T06:54:50;99598.41;;;4.92;100.00
28079;BME280;15388;42.238;24.684;2022-12-07T06:57:16;99595.00;;;4.90;100.00
28079;BME280;15388;42.238;24.684;2022-12-07T06:59:41;99594.63;;;4.96;100.00
28079;BME280;15388;42.238;24.684;2022-12-07T07:02:07;99605.91;;;4.98;100.00
28079;BME280;15388;42.238;24.684;2022-12-07T07:04:32;99594.22;;;5.02;100.00
28079;BME280;15388;42.238;24.684;2022-12-07T07:06:58;99588.00;;;5.03;100.00
28079;BME280;15388;42.238;24.684;2022-12-07T07:09:23;99596.44;;;5.08;100.00
28079;BME280;15388;42.238;24.684;2022-12-07T07:11:48;99594.22;;;5.02;100.00
28079;BME280;15388;42.238;24.684;2022-12-07T07:14:14;99591.66;;;4.88;100.00
28079;BME280;15388;42.238;24.684;2022-12-07T07:16:43;99590.31;;;4.95;100.00
28079;BME280;15388;42.238;24.684;2022-12-07T07:19:09;99587.59;;;4.82;100.00
28079;BME280;15388;42.238;24.684;2022-12-07T07:21:34;99588.44;;;4.82;100.00
28079;BME280;15388;42.238;24.684;2022-12-07T07:24:00;99591.03;;;4.97;100.00
28079;BME280;15388;42.238;24.684;2022-12-07T07:26:25;99587.91;;;5.05;100.00
28079;BME280;15388;42.238;24.684;2022-12-07T07:28:50;99591.94;;;5.10;100.00
28079;BME280;15388;42.238;24.684;2022-12-07T07:31:15;99591.88;;;5.25;100.00
28079;BME280;15388;42.238;24.684;2022-12-07T07:33:41;99597.16;;;5.25;100.00
28079;BME280;15388;42.238;24.684;2022-12-07T07:36:06;99598.44;;;5.32;100.00
28079;BME280;15388;42.238;24.684;2022-12-07T07:38:32;99597.28;;;5.37;100.00
28079;BME280;15388;42.238;24.684;2022-12-07T07:40:57;99604.03;;;5.41;100.00
28079;BME280;15388;42.238;24.684;2022-12-07T07:43:22;99593.28;;;5.44;100.00
28079;BME280;15388;42.238;24.684;2022-12-07T07:45:48;99606.19;;;5.48;100.00
28079;BME280;15388;42.238;24.684;2022-12-07T07:48:13;99606.13;;;5.63;100.00
28079;BME280;15388;42.238;24.684;2022-12-07T07:50:38;99602.94;;;5.71;100.00
28079;BME280;15388;42.238;24.684;2022-12-07T07:53:04;99596.63;;;5.86;100.00
28079;BME280;15388;42.238;24.684;2022-12-07T07:55:29;99602.78;;;6.00;100.00
28079;BME280;15388;42.238;24.684;2022-12-07T07:57:54;99601.72;;;6.16;100.00
28079;BME280;15388;42.238;24.684;2022-12-07T08:00:20;99607.63;;;6.32;100.00
28079;BME280;15388;42.238;24.684;2022-12-07T08:02:45;99597.47;;;6.52;100.00
28079;BME280;15388;42.238;24.684;2022-12-07T08:05:11;99603.75;;;6.75;100.00
28079;BME280;15388;42.238;24.684;2022-12-07T08:07:37;99605.69;;;6.98;100.00
28079;BME280;15388;42.238;24.684;2022-12-07T08:10:02;99600.22;;;7.12;100.00
28079;BME280;15388;42.238;24.684;2022-12-07T08:12:28;99604.28;;;7.30;100.00
28079;BME280;15388;42.238;24.684;2022-12-07T08:14:53;99604.91;;;7.45;100.00
28079;BME280;15388;42.238;24.684;2022-12-07T08:17:18;99601.34;;;7.57;100.00
28079;BME280;15388;42.238;24.684;2022-12-07T08:19:44;99598.75;;;7.69;100.00
28079;BME280;15388;42.238;24.684;2022-12-07T08:22:09;99598.06;;;7.78;100.00
28079;BME280;15388;42.238;24.684;2022-12-07T08:24:34;99601.38;;;7.69;100.00
28079;BME280;15388;42.238;24.684;2022-12-07T08:27:00;99603.81;;;7.83;100.00
28079;BME280;15388;42.238;24.684;2022-12-07T08:29:26;99606.72;;;7.92;100.00
28079;BME280;15388;42.238;24.684;2022-12-07T08:31:51;99601.69;;;8.00;100.00
28079;BME280;15388;42.238;24.684;2022-12-07T08:34:16;99599.28;;;8.08;100.00
28079;BME280;15388;42.238;24.684;2022-12-07T08:36:42;99600.84;;;8.22;100.00
28079;BME280;15388;42.238;24.684;2022-12-07T08:39:07;99593.75;;;8.34;100.00
28079;BME280;15388;42.238;24.684;2022-12-07T08:41:33;99595.44;;;8.47;100.00
28079;BME280;15388;42.238;24.684;2022-12-07T08:43:58;99597.16;;;8.59;100.00
28079;BME280;15388;42.238;24.684;2022-12-07T08:46:31;99588.44;;;8.80;100.00
28079;BME280;15388;42.238;24.684;2022-12-07T08:49:13;99590.28;;;9.01;100.00
28079;BME280;15388;42.238;24.684;2022-12-07T08:51:39;99589.47;;;9.00;100.00
28079;BME280;15388;42.238;24.684;2022-12-07T08:54:06;99583.00;;;9.14;100.00
28079;BME280;15388;42.238;24.684;2022-12-07T08:56:33;99574.47;;;9.11;100.00
28079;BME280;15388;42.238;24.684;2022-12-07T08:58:58;99574.09;;;9.15;100.00
28079;BME280;15388;42.238;24.684;2022-12-07T09:01:24;99577.75;;;9.36;100.00
28079;BME280;15388;42.238;24.684;2022-12-07T09:03:49;99574.19;;;9.47;100.00
28079;BME280;15388;42.238;24.684;2022-12-07T09:06:15;99567.84;;;9.59;100.00
28079;BME280;15388;42.238;24.684;2022-12-07T09:08:42;99566.53;;;9.75;100.00
28079;BME280;15388;42.238;24.684;2022-12-07T09:11:08;99551.94;;;9.90;100.00
28079;BME280;15388;42.238;24.684;2022-12-07T09:13:33;99551.03;;;10.01;100.00
28079;BME280;15388;42.238;24.684;2022-12-07T09:15:59;99550.81;;;10.14;100.00
28079;BME280;15388;42.238;24.684;2022-12-07T09:18:24;99553.88;;;10.19;100.00
28079;BME280;15388;42.238;24.684;2022-12-07T09:20:50;99548.91;;;10.36;100.00
28079;BME280;15388;42.238;24.684;2022-12-07T09:23:15;99539.75;;;10.50;100.00
28079;BME280;15388;42.238;24.684;2022-12-07T09:25:40;99528.03;;;10.31;100.00
28079;BME280;15388;42.238;24.684;2022-12-07T09:28:06;99538.06;;;10.59;100.00
28079;BME280;15388;42.238;24.684;2022-12-07T09:30:31;99535.56;;;10.67;100.00
28079;BME280;15388;42.238;24.684;2022-12-07T09:32:56;99515.13;;;10.68;100.00
28079;BME280;15388;42.238;24.684;2022-12-07T09:35:22;99525.78;;;10.78;100.00
28079;BME280;15388;42.238;24.684;2022-12-07T09:37:48;99519.50;;;10.79;100.00
28079;BME280;15388;42.238;24.684;2022-12-07T09:40:13;99516.53;;;10.82;100.00
28079;BME280;15388;42.238;24.684;2022-12-07T09:42:41;99518.50;;;11.00;100.00
28079;BME280;15388;42.238;24.684;2022-12-07T09:45:14;99509.53;;;11.20;100.00
28079;BME280;15388;42.238;24.684;2022-12-07T09:47:40;99506.59;;;11.24;100.00
28079;BME280;15388;42.238;24.684;2022-12-07T09:50:10;99507.31;;;11.26;100.00
28079;BME280;15388;42.238;24.684;2022-12-07T09:52:37;99504.44;;;11.47;100.00
28079;BME280;15388;42.238;24.684;2022-12-07T09:55:02;99492.63;;;11.59;100.00
28079;BME280;15388;42.238;24.684;2022-12-07T09:57:29;99490.06;;;11.78;100.00
28079;BME280;15388;42.238;24.684;2022-12-07T10:00:00;99494.72;;;12.04;100.00
28079;BME280;15388;42.238;24.684;2022-12-07T10:04:51;99494.25;;;11.80;100.00
28079;BME280;15388;42.238;24.684;2022-12-07T10:07:16;99499.97;;;11.95;100.00
28079;BME280;15388;42.238;24.684;2022-12-07T10:09:41;99492.31;;;11.72;100.00
28079;BME280;15388;42.238;24.684;2022-12-07T10:12:09;99491.53;;;11.90;100.00
28079;BME280;15388;42.238;24.684;2022-12-07T10:14:35;99481.00;;;11.98;100.00
28079;BME280;15388;42.238;24.684;2022-12-07T10:17:01;99482.44;;;11.83;100.00
28079;BME280;15388;42.238;24.684;2022-12-07T10:19:30;99477.94;;;11.45;100.00
28079;BME280;15388;42.238;24.684;2022-12-07T10:22:13;99478.06;;;11.54;100.00
28079;BME280;15388;42.238;24.684;2022-12-07T10:24:40;99475.69;;;11.51;100.00
28079;BME280;15388;42.238;24.684;2022-12-07T10:27:17;99475.44;;;11.82;100.00
28079;BME280;15388;42.238;24.684;2022-12-07T10:29:46;99466.97;;;11.96;100.00
28079;BME280;15388;42.238;24.684;2022-12-07T10:34:41;99462.16;;;12.10;100.00
28079;BME280;15388;42.238;24.684;2022-12-07T10:39:46;99459.88;;;12.15;100.00
28079;BME280;15388;42.238;24.684;2022-12-07T10:42:19;99467.09;;;12.33;96.85
28079;BME280;15388;42.238;24.684;2022-12-07T10:44:44;99461.13;;;12.67;95.58
28079;BME280;15388;42.238;24.684;2022-12-07T10:47:30;99464.06;;;13.01;92.17
28079;BME280;15388;42.238;24.684;2022-12-07T10:52:49;99452.91;;;13.77;85.21
28079;BME280;15388;42.238;24.684;2022-12-07T10:57:51;99439.16;;;14.14;82.99
28079;BME280;15388;42.238;24.684;2022-12-07T11:00:25;99436.84;;;14.20;81.94
28079;BME280;15388;42.238;24.684;2022-12-07T11:10:38;99442.25;;;13.93;83.41
28079;BME280;15388;42.238;24.684;2022-12-07T11:16:02;99430.69;;;14.36;80.33
28079;BME280;15388;42.238;24.684;2022-12-07T11:18:48;99435.75;;;14.56;76.13
28079;BME280;15388;42.238;24.684;2022-12-07T11:34:15;99406.13;;;14.74;75.28
28079;BME280;15388;42.238;24.684;2022-12-07T11:36:44;99406.81;;;14.76;76.88
28079;BME280;15388;42.238;24.684;2022-12-07T11:41:41;99408.69;;;14.92;75.78
28079;BME280;15388;42.238;24.684;2022-12-07T11:44:53;99400.63;;;15.00;74.76
28079;BME280;15388;42.238;24.684;2022-12-07T11:49:34;99398.59;;;15.02;74.93
28079;BME280;15388;42.238;24.684;2022-12-07T11:52:02;99400.63;;;15.00;74.75
28079;BME280;15388;42.238;24.684;2022-12-07T11:54:30;99395.59;;;14.81;75.67
28079;BME280;15388;42.238;24.684;2022-12-07T11:56:57;99392.91;;;14.56;75.20
28079;BME280;15388;42.238;24.684;2022-12-07T11:59:32;99390.03;;;14.32;75.04
28079;BME280;15388;42.238;24.684;2022-12-07T12:02:21;99374.78;;;14.33;75.42
28079;BME280;15388;42.238;24.684;2022-12-07T12:05:02;99383.47;;;14.18;77.47
28079;BME280;15388;42.238;24.684;2022-12-07T12:07:31;99370.78;;;14.29;77.74
28079;BME280;15388;42.238;24.684;2022-12-07T12:09:58;99362.91;;;14.19;78.60
28079;BME280;15388;42.238;24.684;2022-12-07T12:12:36;99376.63;;;14.16;78.17
28079;BME280;15388;42.238;24.684;2022-12-07T12:17:54;99369.75;;;14.21;77.00
28079;BME280;15388;42.238;24.684;2022-12-07T12:25:35;99360.88;;;14.12;78.02
28079;BME280;15388;42.238;24.684;2022-12-07T12:28:02;99361.53;;;14.06;77.31
28079;BME280;15388;42.238;24.684;2022-12-07T12:30:37;99353.16;;;14.01;77.88
28079;BME280;15388;42.238;24.684;2022-12-07T12:33:14;99353.16;;;14.01;78.81
28079;BME280;15388;42.238;24.684;2022-12-07T12:35:41;99346.47;;;13.97;78.59
28079;BME280;15388;42.238;24.684;2022-12-07T12:40:52;99342.31;;;13.94;78.96
28079;BME280;15388;42.238;24.684;2022-12-07T12:48:45;99340.09;;;13.90;78.26
28079;BME280;15388;42.238;24.684;2022-12-07T12:54:03;99334.91;;;13.80;80.79
28079;BME280;15388;42.238;24.684;2022-12-07T12:59:18;99333.91;;;13.89;80.04
28079;BME280;15388;42.238;24.684;2022-12-07T13:01:39;99336.59;;;13.89;78.56
28079;BME280;15388;42.238;24.684;2022-12-07T13:04:25;99332.03;;;13.81;79.47
28079;BME280;15388;42.238;24.684;2022-12-07T13:06:52;99331.38;;;13.79;80.09
28079;BME280;15388;42.238;24.684;2022-12-07T13:09:22;99333.53;;;13.75;80.12
28079;BME280;15388;42.238;24.684;2022-12-07T13:11:49;99330.53;;;13.70;80.18
28079;BME280;15388;42.238;24.684;2022-12-07T13:14:37;99331.38;;;13.71;79.69
28079;BME280;15388;42.238;24.684;2022-12-07T13:17:10;99336.47;;;13.56;80.31
28079;BME280;15388;42.238;24.684;2022-12-07T13:22:53;99307.56;;;13.24;79.57
28079;BME280;15388;42.238;24.684;2022-12-07T13:24:56;99338.72;;;13.42;80.24
28079;BME280;15388;42.238;24.684;2022-12-07T13:27:22;99338.06;;;13.40;81.07
28079;BME280;15388;42.238;24.684;2022-12-07T13:29:49;99333.69;;;13.39;81.25
28079;BME280;15388;42.238;24.684;2022-12-07T13:32:32;99332.03;;;13.38;80.88
28079;BME280;15388;42.238;24.684;2022-12-07T13:34:59;99334.03;;;13.36;80.39
28079;BME280;15388;42.238;24.684;2022-12-07T13:37:25;99340.03;;;13.30;80.71
28079;BME280;15388;42.238;24.684;2022-12-07T13:40:17;99340.03;;;13.30;81.36
28079;BME280;15388;42.238;24.684;2022-12-07T13:42:43;99340.03;;;13.30;81.33
28079;BME280;15388;42.238;24.684;2022-12-07T13:45:22;99340.69;;;13.32;81.33
28079;BME280;15388;42.238;24.684;2022-12-07T13:48:08;99340.53;;;13.33;81.64
28079;BME280;15388;42.238;24.684;2022-12-07T13:50:38;99345.56;;;13.36;80.61
28079;BME280;15388;42.238;24.684;2022-12-07T13:53:07;99347.72;;;13.33;79.85
28079;BME280;15388;42.238;24.684;2022-12-07T13:55:36;99343.34;;;13.32;80.41
28079;BME280;15388;42.238;24.684;2022-12-07T13:58:08;99344.66;;;13.28;80.03
28079;BME280;15388;42.238;24.684;2022-12-07T14:00:34;99331.31;;;13.28;80.67
28079;BME280;15388;42.238;24.684;2022-12-07T14:05:27;99328.91;;;13.16;81.83
28079;BME280;15388;42.238;24.684;2022-12-07T14:10:24;99327.56;;;13.12;82.87
28079;BME280;15388;42.238;24.684;2022-12-07T14:12:49;99333.53;;;13.06;83.90
28079;BME280;15388;42.238;24.684;2022-12-07T14:15:19;99340.88;;;13.04;84.19
28079;BME280;15388;42.238;24.684;2022-12-07T14:17:49;99341.19;;;13.01;83.80
28079;BME280;15388;42.238;24.684;2022-12-07T14:23:23;99340.06;;;12.85;84.89
28079;BME280;15388;42.238;24.684;2022-12-07T14:25:51;99336.03;;;12.81;85.02
28079;BME280;15388;42.238;24.684;2022-12-07T14:28:27;99338.66;;;12.72;85.75
28079;BME280;15388;42.238;24.684;2022-12-07T14:30:52;99342.94;;;12.65;85.92
28079;BME280;15388;42.238;24.684;2022-12-07T14:33:18;99353.25;;;12.60;86.18
28079;BME280;15388;42.238;24.684;2022-12-07T14:35:43;99345.88;;;12.54;87.17
28079;BME280;15388;42.238;24.684;2022-12-07T14:38:08;99338.84;;;12.53;87.69